sensor_id;sensor_type;location;lat;lon;timestamp;temperature;humidity
52725;DHT22;38621;52.830;6.914;2024-03-23T00:53:34;6.10;99.90
52725;DHT22;38621;52.830;6.914;2024-03-23T00:56:00;6.10;99.90
52725;DHT22;38621;52.830;6.914;2024-03-23T00:58:26;6.10;99.90
52725;DHT22;38621;52.830;6.914;2024-03-23T01:00:51;6.00;99.90
52725;DHT22;38621;52.830;6.914;2024-03-23T01:03:17;6.00;99.90
52725;DHT22;38621;52.830;6.914;2024-03-23T01:05:43;6.20;99.90
52725;DHT22;38621;52.830;6.914;2024-03-23T01:08:08;6.00;99.90
52725;DHT22;38621;52.830;6.914;2024-03-23T01:10:34;6.00;99.90
52725;DHT22;38621;52.830;6.914;2024-03-23T01:13:00;6.20;99.90
52725;DHT22;38621;52.830;6.914;2024-03-23T01:15:25;6.00;99.90
52725;DHT22;38621;52.830;6.914;2024-03-23T01:17:51;6.00;99.90
52725;DHT22;38621;52.830;6.914;2024-03-23T01:20:17;6.00;99.90
52725;DHT22;38621;52.830;6.914;2024-03-23T01:22:42;5.90;99.90
52725;DHT22;38621;52.830;6.914;2024-03-23T01:25:08;5.90;99.90
52725;DHT22;38621;52.830;6.914;2024-03-23T01:27:33;5.90;99.90
52725;DHT22;38621;52.830;6.914;2024-03-23T01:29:59;5.80;99.90
52725;DHT22;38621;52.830;6.914;2024-03-23T01:32:25;5.80;99.90
52725;DHT22;38621;52.830;6.914;2024-03-23T01:34:51;5.80;99.90
52725;DHT22;38621;52.830;6.914;2024-03-23T01:37:16;5.80;99.90
52725;DHT22;38621;52.830;6.914;2024-03-23T01:39:42;5.80;99.90
52725;DHT22;38621;52.830;6.914;2024-03-23T01:42:07;5.80;99.90
52725;DHT22;38621;52.830;6.914;2024-03-23T01:44:33;6.00;99.90
52725;DHT22;38621;52.830;6.914;2024-03-23T01:46:59;5.80;99.90
52725;DHT22;38621;52.830;6.914;2024-03-23T01:49:24;5.70;99.90
52725;DHT22;38621;52.830;6.914;2024-03-23T01:51:50;5.90;99.90
52725;DHT22;38621;52.830;6.914;2024-03-23T01:54:16;5.60;99.90
52725;DHT22;38621;52.830;6.914;2024-03-23T01:56:42;5.60;99.90
52725;DHT22;38621;52.830;6.914;2024-03-23T01:59:08;5.50;99.90
52725;DHT22;38621;52.830;6.914;2024-03-23T02:01:36;5.40;99.90
52725;DHT22;38621;52.830;6.914;2024-03-23T02:04:02;5.30;99.90
52725;DHT22;38621;52.830;6.914;2024-03-23T02:06:28;5.20;99.90
52725;DHT22;38621;52.830;6.914;2024-03-23T02:08:54;5.20;99.90
52725;DHT22;38621;52.830;6.914;2024-03-23T02:11:20;5.10;99.90
52725;DHT22;38621;52.830;6.914;2024-03-23T02:13:46;5.10;99.90
52725;DHT22;38621;52.830;6.914;2024-03-23T02:16:12;5.10;99.90
52725;DHT22;38621;52.830;6.914;2024-03-23T02:18:38;5.00;99.90
52725;DHT22;38621;52.830;6.914;2024-03-23T02:21:04;5.00;99.90
52725;DHT22;38621;52.830;6.914;2024-03-23T02:23:30;4.90;99.90
52725;DHT22;38621;52.830;6.914;2024-03-23T02:25:56;4.90;99.90
52725;DHT22;38621;52.830;6.914;2024-03-23T02:28:22;4.90;99.90
52725;DHT22;38621;52.830;6.914;2024-03-23T02:30:51;5.10;99.90
52725;DHT22;38621;52.830;6.914;2024-03-23T02:33:17;4.80;99.90
52725;DHT22;38621;52.830;6.914;2024-03-23T02:35:44;4.80;99.90
52725;DHT22;38621;52.830;6.914;2024-03-23T02:38:10;4.80;99.90
52725;DHT22;38621;52.830;6.914;2024-03-23T02:40:36;4.80;99.90
52725;DHT22;38621;52.830;6.914;2024-03-23T02:43:03;4.80;99.90
52725;DHT22;38621;52.830;6.914;2024-03-23T02:45:29;4.80;99.90
52725;DHT22;38621;52.830;6.914;2024-03-23T02:47:55;4.70;99.90
52725;DHT22;38621;52.830;6.914;2024-03-23T02:50:21;4.70;99.90
52725;DHT22;38621;52.830;6.914;2024-03-23T02:52:47;4.70;99.90
52725;DHT22;38621;52.830;6.914;2024-03-23T02:55:13;4.60;99.90
52725;DHT22;38621;52.830;6.914;2024-03-23T02:57:39;4.60;99.90
52725;DHT22;38621;52.830;6.914;2024-03-23T03:00:06;4.60;99.90
52725;DHT22;38621;52.830;6.914;2024-03-23T03:02:33;4.50;99.90
52725;DHT22;38621;52.830;6.914;2024-03-23T03:04:58;4.50;99.90
52725;DHT22;38621;52.830;6.914;2024-03-23T03:07:24;4.50;99.90
52725;DHT22;38621;52.830;6.914;2024-03-23T03:09:49;4.50;99.90
52725;DHT22;38621;52.830;6.914;2024-03-23T03:12:15;4.40;99.90
52725;DHT22;38621;52.830;6.914;2024-03-23T03:14:41;4.60;99.90
52725;DHT22;38621;52.830;6.914;2024-03-23T03:17:06;4.50;99.90
52725;DHT22;38621;52.830;6.914;2024-03-23T03:19:32;4.50;99.90
52725;DHT22;38621;52.830;6.914;2024-03-23T03:21:58;4.60;99.90
52725;DHT22;38621;52.830;6.914;2024-03-23T03:24:23;4.40;99.90
52725;DHT22;38621;52.830;6.914;2024-03-23T03:26:49;4.40;99.90
52725;DHT22;38621;52.830;6.914;2024-03-23T03:29:15;4.40;99.90
52725;DHT22;38621;52.830;6.914;2024-03-23T03:31:44;4.70;99.90
52725;DHT22;38621;52.830;6.914;2024-03-23T03:34:10;4.30;99.90
52725;DHT22;38621;52.830;6.914;2024-03-23T03:36:36;4.30;99.90
52725;DHT22;38621;52.830;6.914;2024-03-23T03:39:01;4.30;99.90
52725;DHT22;38621;52.830;6.914;2024-03-23T03:41:31;4.30;99.90
52725;DHT22;38621;52.830;6.914;2024-03-23T03:43:57;4.30;99.90
52725;DHT22;38621;52.830;6.914;2024-03-23T03:46:27;4.20;99.90
52725;DHT22;38621;52.830;6.914;2024-03-23T03:48:53;4.20;99.90
52725;DHT22;38621;52.830;6.914;2024-03-23T03:51:19;4.20;99.90
52725;DHT22;38621;52.830;6.914;2024-03-23T03:53:45;4.20;99.90
52725;DHT22;38621;52.830;6.914;2024-03-23T03:56:10;4.20;99.90
52725;DHT22;38621;52.830;6.914;2024-03-23T03:58:36;4.20;99.90
52725;DHT22;38621;52.830;6.914;2024-03-23T04:01:02;4.20;99.90
52725;DHT22;38621;52.830;6.914;2024-03-23T04:03:27;4.10;99.90
52725;DHT22;38621;52.830;6.914;2024-03-23T04:05:54;4.10;99.90
52725;DHT22;38621;52.830;6.914;2024-03-23T04:08:20;4.10;99.90
52725;DHT22;38621;52.830;6.914;2024-03-23T04:10:46;4.10;99.90
52725;DHT22;38621;52.830;6.914;2024-03-23T04:13:12;4.00;99.90
52725;DHT22;38621;52.830;6.914;2024-03-23T04:15:38;3.90;99.90
52725;DHT22;38621;52.830;6.914;2024-03-23T04:18:04;4.10;99.90
52725;DHT22;38621;52.830;6.914;2024-03-23T04:20:30;3.80;99.90
52725;DHT22;38621;52.830;6.914;2024-03-23T04:22:55;3.80;99.90
52725;DHT22;38621;52.830;6.914;2024-03-23T04:25:21;3.80;99.90
52725;DHT22;38621;52.830;6.914;2024-03-23T04:27:47;3.80;99.90
52725;DHT22;38621;52.830;6.914;2024-03-23T04:30:13;3.80;99.90
52725;DHT22;38621;52.830;6.914;2024-03-23T04:32:39;3.80;99.90
52725;DHT22;38621;52.830;6.914;2024-03-23T04:35:05;3.80;99.90
52725;DHT22;38621;52.830;6.914;2024-03-23T04:37:37;3.80;99.90
52725;DHT22;38621;52.830;6.914;2024-03-23T04:40:04;3.80;99.90
52725;DHT22;38621;52.830;6.914;2024-03-23T04:42:30;3.70;99.90
52725;DHT22;38621;52.830;6.914;2024-03-23T04:44:56;3.70;99.90
52725;DHT22;38621;52.830;6.914;2024-03-23T04:47:22;3.70;99.90
52725;DHT22;38621;52.830;6.914;2024-03-23T04:49:48;3.70;99.90
52725;DHT22;38621;52.830;6.914;2024-03-23T04:52:14;3.90;99.90
52725;DHT22;38621;52.830;6.914;2024-03-23T04:54:39;3.60;99.90
52725;DHT22;38621;52.830;6.914;2024-03-23T04:57:06;3.70;99.90
52725;DHT22;38621;52.830;6.914;2024-03-23T04:59:32;3.60;99.90
52725;DHT22;38621;52.830;6.914;2024-03-23T05:01:57;3.60;99.90
52725;DHT22;38621;52.830;6.914;2024-03-23T05:04:23;3.70;99.90
52725;DHT22;38621;52.830;6.914;2024-03-23T05:06:49;3.70;99.90
52725;DHT22;38621;52.830;6.914;2024-03-23T05:09:14;3.70;99.90
52725;DHT22;38621;52.830;6.914;2024-03-23T05:11:40;3.60;99.90
52725;DHT22;38621;52.830;6.914;2024-03-23T05:14:07;3.60;99.90
52725;DHT22;38621;52.830;6.914;2024-03-23T05:16:33;3.50;99.90
52725;DHT22;38621;52.830;6.914;2024-03-23T05:18:58;3.60;99.90
52725;DHT22;38621;52.830;6.914;2024-03-23T05:21:24;3.60;99.90
52725;DHT22;38621;52.830;6.914;2024-03-23T05:23:50;3.60;99.90
52725;DHT22;38621;52.830;6.914;2024-03-23T05:26:17;3.60;99.90
52725;DHT22;38621;52.830;6.914;2024-03-23T05:28:42;3.60;99.90
52725;DHT22;38621;52.830;6.914;2024-03-23T05:31:08;3.70;99.90
52725;DHT22;38621;52.830;6.914;2024-03-23T05:33:36;3.60;99.90
52725;DHT22;38621;52.830;6.914;2024-03-23T05:36:05;3.60;99.90
52725;DHT22;38621;52.830;6.914;2024-03-23T05:38:31;3.60;99.90
52725;DHT22;38621;52.830;6.914;2024-03-23T05:41:00;3.60;99.90
52725;DHT22;38621;52.830;6.914;2024-03-23T05:43:26;3.70;99.90
52725;DHT22;38621;52.830;6.914;2024-03-23T05:45:57;3.60;99.90
52725;DHT22;38621;52.830;6.914;2024-03-23T05:48:24;3.70;99.90
52725;DHT22;38621;52.830;6.914;2024-03-23T05:50:50;3.70;99.90
52725;DHT22;38621;52.830;6.914;2024-03-23T05:53:17;3.70;99.90
52725;DHT22;38621;52.830;6.914;2024-03-23T05:55:42;3.70;99.90
52725;DHT22;38621;52.830;6.914;2024-03-23T05:58:08;3.70;99.90
52725;DHT22;38621;52.830;6.914;2024-03-23T06:00:34;3.60;99.90
52725;DHT22;38621;52.830;6.914;2024-03-23T06:03:00;3.70;99.90
52725;DHT22;38621;52.830;6.914;2024-03-23T06:05:25;3.60;99.90
52725;DHT22;38621;52.830;6.914;2024-03-23T06:07:51;3.70;99.90
52725;DHT22;38621;52.830;6.914;2024-03-23T06:10:18;3.70;99.90
52725;DHT22;38621;52.830;6.914;2024-03-23T06:12:45;3.70;99.90
52725;DHT22;38621;52.830;6.914;2024-03-23T06:15:11;4.80;99.90
52725;DHT22;38621;52.830;6.914;2024-03-23T06:17:37;3.80;99.90
52725;DHT22;38621;52.830;6.914;2024-03-23T06:20:03;3.90;99.90
52725;DHT22;38621;52.830;6.914;2024-03-23T06:22:29;4.00;99.90
52725;DHT22;38621;52.830;6.914;2024-03-23T06:24:54;4.00;99.90
52725;DHT22;38621;52.830;6.914;2024-03-23T06:27:20;4.10;99.90
52725;DHT22;38621;52.830;6.914;2024-03-23T06:29:46;4.10;99.90
52725;DHT22;38621;52.830;6.914;2024-03-23T06:32:11;4.20;99.90
52725;DHT22;38621;52.830;6.914;2024-03-23T06:34:37;4.20;99.90
52725;DHT22;38621;52.830;6.914;2024-03-23T06:37:03;4.30;99.90
52725;DHT22;38621;52.830;6.914;2024-03-23T06:39:28;4.30;99.90
52725;DHT22;38621;52.830;6.914;2024-03-23T06:41:55;4.50;99.90
52725;DHT22;38621;52.830;6.914;2024-03-23T06:44:22;4.70;99.90
52725;DHT22;38621;52.830;6.914;2024-03-23T06:46:47;4.90;99.90
52725;DHT22;38621;52.830;6.914;2024-03-23T06:49:14;5.00;99.90
52725;DHT22;38621;52.830;6.914;2024-03-23T06:51:41;5.00;99.90
52725;DHT22;38621;52.830;6.914;2024-03-23T06:54:06;5.00;99.90
52725;DHT22;38621;52.830;6.914;2024-03-23T06:56:32;4.80;99.90
52725;DHT22;38621;52.830;6.914;2024-03-23T06:59:00;4.50;99.90
52725;DHT22;38621;52.830;6.914;2024-03-23T07:01:25;4.20;99.90
52725;DHT22;38621;52.830;6.914;2024-03-23T07:03:51;4.10;99.90
52725;DHT22;38621;52.830;6.914;2024-03-23T07:06:16;4.00;99.90
52725;DHT22;38621;52.830;6.914;2024-03-23T07:08:42;4.00;99.90
52725;DHT22;38621;52.830;6.914;2024-03-23T07:11:08;4.70;99.90
52725;DHT22;38621;52.830;6.914;2024-03-23T07:13:33;4.10;99.90
52725;DHT22;38621;52.830;6.914;2024-03-23T07:15:59;4.20;99.90
52725;DHT22;38621;52.830;6.914;2024-03-23T07:18:25;4.30;99.90
52725;DHT22;38621;52.830;6.914;2024-03-23T07:20:58;4.30;99.90
52725;DHT22;38621;52.830;6.914;2024-03-23T07:23:26;4.40;99.90
52725;DHT22;38621;52.830;6.914;2024-03-23T07:26:03;4.50;99.90
52725;DHT22;38621;52.830;6.914;2024-03-23T07:28:30;4.60;99.90
52725;DHT22;38621;52.830;6.914;2024-03-23T07:31:10;4.60;99.90
52725;DHT22;38621;52.830;6.914;2024-03-23T07:33:37;4.60;99.90
52725;DHT22;38621;52.830;6.914;2024-03-23T07:36:04;4.60;99.90
52725;DHT22;38621;52.830;6.914;2024-03-23T07:38:31;4.60;99.90
52725;DHT22;38621;52.830;6.914;2024-03-23T07:41:09;4.70;99.90
52725;DHT22;38621;52.830;6.914;2024-03-23T07:43:36;4.70;99.90
52725;DHT22;38621;52.830;6.914;2024-03-23T07:46:03;4.70;99.90
52725;DHT22;38621;52.830;6.914;2024-03-23T07:48:29;4.80;99.90
52725;DHT22;38621;52.830;6.914;2024-03-23T07:51:02;4.60;99.90
52725;DHT22;38621;52.830;6.914;2024-03-23T07:53:30;4.50;99.90
52725;DHT22;38621;52.830;6.914;2024-03-23T07:55:57;4.40;99.90
52725;DHT22;38621;52.830;6.914;2024-03-23T07:58:23;4.40;99.90
52725;DHT22;38621;52.830;6.914;2024-03-23T08:00:49;4.40;99.90
52725;DHT22;38621;52.830;6.914;2024-03-23T08:03:15;4.40;99.90
52725;DHT22;38621;52.830;6.914;2024-03-23T08:05:40;4.40;99.90
52725;DHT22;38621;52.830;6.914;2024-03-23T08:08:06;4.30;99.90
52725;DHT22;38621;52.830;6.914;2024-03-23T08:10:32;4.20;99.90
52725;DHT22;38621;52.830;6.914;2024-03-23T08:12:57;4.00;99.90
52725;DHT22;38621;52.830;6.914;2024-03-23T08:15:23;4.00;99.90
52725;DHT22;38621;52.830;6.914;2024-03-23T08:17:50;4.00;99.90
52725;DHT22;38621;52.830;6.914;2024-03-23T08:20:15;4.10;99.90
52725;DHT22;38621;52.830;6.914;2024-03-23T08:22:41;4.10;99.90
52725;DHT22;38621;52.830;6.914;2024-03-23T08:25:07;4.10;99.90
52725;DHT22;38621;52.830;6.914;2024-03-23T08:27:32;4.10;99.90
52725;DHT22;38621;52.830;6.914;2024-03-23T08:29:58;4.20;99.90
52725;DHT22;38621;52.830;6.914;2024-03-23T08:32:24;4.30;99.90
52725;DHT22;38621;52.830;6.914;2024-03-23T08:34:50;4.30;99.90
52725;DHT22;38621;52.830;6.914;2024-03-23T08:37:15;4.30;99.90
52725;DHT22;38621;52.830;6.914;2024-03-23T08:39:43;4.40;99.90
52725;DHT22;38621;52.830;6.914;2024-03-23T08:42:09;4.50;99.90
52725;DHT22;38621;52.830;6.914;2024-03-23T08:44:34;4.60;99.90
52725;DHT22;38621;52.830;6.914;2024-03-23T08:47:01;4.70;99.90
52725;DHT22;38621;52.830;6.914;2024-03-23T08:49:27;5.00;99.90
52725;DHT22;38621;52.830;6.914;2024-03-23T08:51:53;5.10;99.90
52725;DHT22;38621;52.830;6.914;2024-03-23T08:54:19;5.30;99.90
52725;DHT22;38621;52.830;6.914;2024-03-23T08:56:46;5.40;99.90
52725;DHT22;38621;52.830;6.914;2024-03-23T08:59:11;5.60;99.90
52725;DHT22;38621;52.830;6.914;2024-03-23T09:01:37;5.50;99.90
52725;DHT22;38621;52.830;6.914;2024-03-23T09:04:04;5.50;99.90
52725;DHT22;38621;52.830;6.914;2024-03-23T09:06:29;5.90;99.90
52725;DHT22;38621;52.830;6.914;2024-03-23T09:08:55;5.80;99.90
52725;DHT22;38621;52.830;6.914;2024-03-23T09:11:21;5.80;99.90
52725;DHT22;38621;52.830;6.914;2024-03-23T09:14:02;5.80;99.90
52725;DHT22;38621;52.830;6.914;2024-03-23T09:16:27;5.80;99.90
52725;DHT22;38621;52.830;6.914;2024-03-23T09:18:53;6.00;99.90
52725;DHT22;38621;52.830;6.914;2024-03-23T09:21:18;6.20;99.90
52725;DHT22;38621;52.830;6.914;2024-03-23T09:23:44;6.40;99.90
52725;DHT22;38621;52.830;6.914;2024-03-23T09:26:10;6.50;99.90
52725;DHT22;38621;52.830;6.914;2024-03-23T09:28:36;6.80;99.90
52725;DHT22;38621;52.830;6.914;2024-03-23T09:31:05;6.90;99.90
52725;DHT22;38621;52.830;6.914;2024-03-23T09:33:32;7.10;99.90
52725;DHT22;38621;52.830;6.914;2024-03-23T09:36:06;7.40;99.90
52725;DHT22;38621;52.830;6.914;2024-03-23T09:38:32;7.20;99.90
52725;DHT22;38621;52.830;6.914;2024-03-23T09:40:59;7.10;99.90
52725;DHT22;38621;52.830;6.914;2024-03-23T09:43:25;7.00;99.90
52725;DHT22;38621;52.830;6.914;2024-03-23T09:45:50;7.00;99.90
52725;DHT22;38621;52.830;6.914;2024-03-23T09:48:17;7.20;99.90
52725;DHT22;38621;52.830;6.914;2024-03-23T09:50:44;7.20;99.90
52725;DHT22;38621;52.830;6.914;2024-03-23T09:53:11;7.50;99.90
52725;DHT22;38621;52.830;6.914;2024-03-23T09:55:38;7.60;99.90
52725;DHT22;38621;52.830;6.914;2024-03-23T09:58:05;7.70;99.90
52725;DHT22;38621;52.830;6.914;2024-03-23T10:00:32;7.10;99.90
52725;DHT22;38621;52.830;6.914;2024-03-23T10:03:01;6.80;99.90
52725;DHT22;38621;52.830;6.914;2024-03-23T10:05:30;6.60;99.90
52725;DHT22;38621;52.830;6.914;2024-03-23T10:10:43;6.70;99.90
52725;DHT22;38621;52.830;6.914;2024-03-23T10:13:09;6.80;99.90
52725;DHT22;38621;52.830;6.914;2024-03-23T10:15:36;7.00;99.90
52725;DHT22;38621;52.830;6.914;2024-03-23T10:18:19;6.80;99.90
52725;DHT22;38621;52.830;6.914;2024-03-23T10:21:07;7.00;99.90
52725;DHT22;38621;52.830;6.914;2024-03-23T10:23:41;7.10;99.90
52725;DHT22;38621;52.830;6.914;2024-03-23T10:26:13;7.10;99.90
52725;DHT22;38621;52.830;6.914;2024-03-23T10:28:51;7.20;99.90
52725;DHT22;38621;52.830;6.914;2024-03-23T10:31:17;7.00;99.90
52725;DHT22;38621;52.830;6.914;2024-03-23T10:33:47;6.40;99.90
52725;DHT22;38621;52.830;6.914;2024-03-23T10:36:14;6.30;99.90
52725;DHT22;38621;52.830;6.914;2024-03-23T10:38:41;5.30;99.90
52725;DHT22;38621;52.830;6.914;2024-03-23T10:41:09;4.90;99.90
52725;DHT22;38621;52.830;6.914;2024-03-23T10:43:36;5.10;99.90
52725;DHT22;38621;52.830;6.914;2024-03-23T10:46:03;5.40;99.90
52725;DHT22;38621;52.830;6.914;2024-03-23T10:48:28;5.60;99.90
52725;DHT22;38621;52.830;6.914;2024-03-23T10:50:54;5.90;99.90
52725;DHT22;38621;52.830;6.914;2024-03-23T10:53:26;6.10;99.90
52725;DHT22;38621;52.830;6.914;2024-03-23T10:55:52;6.30;99.90
52725;DHT22;38621;52.830;6.914;2024-03-23T10:58:26;7.00;99.90
52725;DHT22;38621;52.830;6.914;2024-03-23T11:00:53;7.10;99.90
52725;DHT22;38621;52.830;6.914;2024-03-23T11:03:33;7.40;99.90
52725;DHT22;38621;52.830;6.914;2024-03-23T11:06:00;7.70;99.90
52725;DHT22;38621;52.830;6.914;2024-03-23T11:08:37;8.00;99.90
52725;DHT22;38621;52.830;6.914;2024-03-23T11:11:19;8.20;99.90
52725;DHT22;38621;52.830;6.914;2024-03-23T11:13:55;8.30;99.90
52725;DHT22;38621;52.830;6.914;2024-03-23T11:16:25;8.20;99.90
52725;DHT22;38621;52.830;6.914;2024-03-23T11:19:38;8.30;99.90
52725;DHT22;38621;52.830;6.914;2024-03-23T11:22:04;8.40;99.90
52725;DHT22;38621;52.830;6.914;2024-03-23T11:24:33;8.50;99.90
52725;DHT22;38621;52.830;6.914;2024-03-23T11:27:00;8.30;99.90
52725;DHT22;38621;52.830;6.914;2024-03-23T11:29:27;8.00;99.90
52725;DHT22;38621;52.830;6.914;2024-03-23T11:31:55;7.20;99.90
52725;DHT22;38621;52.830;6.914;2024-03-23T11:34:20;6.40;99.90
52725;DHT22;38621;52.830;6.914;2024-03-23T11:36:47;5.80;99.90
52725;DHT22;38621;52.830;6.914;2024-03-23T11:39:17;5.30;99.90
52725;DHT22;38621;52.830;6.914;2024-03-23T11:41:49;5.10;99.90
52725;DHT22;38621;52.830;6.914;2024-03-23T11:44:19;4.80;99.90
52725;DHT22;38621;52.830;6.914;2024-03-23T11:46:49;4.70;99.90
52725;DHT22;38621;52.830;6.914;2024-03-23T11:49:25;4.60;99.90
52725;DHT22;38621;52.830;6.914;2024-03-23T11:51:54;4.60;99.90
52725;DHT22;38621;52.830;6.914;2024-03-23T11:54:22;4.70;99.90
52725;DHT22;38621;52.830;6.914;2024-03-23T11:56:57;4.80;99.90
52725;DHT22;38621;52.830;6.914;2024-03-23T11:59:37;4.80;99.90
52725;DHT22;38621;52.830;6.914;2024-03-23T12:02:13;4.70;99.90
52725;DHT22;38621;52.830;6.914;2024-03-23T12:04:40;4.70;99.90
52725;DHT22;38621;52.830;6.914;2024-03-23T12:07:14;4.70;99.90
52725;DHT22;38621;52.830;6.914;2024-03-23T12:09:41;4.80;99.90
52725;DHT22;38621;52.830;6.914;2024-03-23T12:12:17;4.80;99.90
52725;DHT22;38621;52.830;6.914;2024-03-23T12:14:44;4.90;99.90
52725;DHT22;38621;52.830;6.914;2024-03-23T12:17:14;5.40;99.90
52725;DHT22;38621;52.830;6.914;2024-03-23T12:19:41;5.60;99.90
52725;DHT22;38621;52.830;6.914;2024-03-23T12:22:07;5.80;99.90
52725;DHT22;38621;52.830;6.914;2024-03-23T12:24:34;6.00;99.90
52725;DHT22;38621;52.830;6.914;2024-03-23T12:27:01;6.10;99.90
52725;DHT22;38621;52.830;6.914;2024-03-23T12:29:31;6.20;99.90
52725;DHT22;38621;52.830;6.914;2024-03-23T12:32:01;6.40;99.90
52725;DHT22;38621;52.830;6.914;2024-03-23T12:34:28;6.60;99.90
52725;DHT22;38621;52.830;6.914;2024-03-23T12:36:56;6.40;99.90
52725;DHT22;38621;52.830;6.914;2024-03-23T12:39:22;6.30;99.90
52725;DHT22;38621;52.830;6.914;2024-03-23T12:41:48;6.40;99.90
52725;DHT22;38621;52.830;6.914;2024-03-23T12:44:14;7.00;99.90
52725;DHT22;38621;52.830;6.914;2024-03-23T12:46:44;6.80;99.90
52725;DHT22;38621;52.830;6.914;2024-03-23T12:49:10;6.40;99.90
52725;DHT22;38621;52.830;6.914;2024-03-23T12:51:36;6.40;99.90
52725;DHT22;38621;52.830;6.914;2024-03-23T12:54:01;6.50;99.90
52725;DHT22;38621;52.830;6.914;2024-03-23T12:56:27;6.40;99.90
52725;DHT22;38621;52.830;6.914;2024-03-23T12:58:56;6.20;99.90
52725;DHT22;38621;52.830;6.914;2024-03-23T13:01:26;6.00;99.90
52725;DHT22;38621;52.830;6.914;2024-03-23T13:03:51;6.00;99.90
52725;DHT22;38621;52.830;6.914;2024-03-23T13:06:18;5.90;99.90
52725;DHT22;38621;52.830;6.914;2024-03-23T13:08:45;5.80;99.90
52725;DHT22;38621;52.830;6.914;2024-03-23T13:11:11;5.80;99.90
52725;DHT22;38621;52.830;6.914;2024-03-23T13:13:37;5.80;99.90
52725;DHT22;38621;52.830;6.914;2024-03-23T13:16:05;6.00;99.90
52725;DHT22;38621;52.830;6.914;2024-03-23T13:18:31;6.10;99.90
52725;DHT22;38621;52.830;6.914;2024-03-23T13:20:58;6.00;99.90
52725;DHT22;38621;52.830;6.914;2024-03-23T13:23:23;6.10;99.90
52725;DHT22;38621;52.830;6.914;2024-03-23T13:25:50;6.10;99.90
52725;DHT22;38621;52.830;6.914;2024-03-23T13:28:16;6.40;99.90
52725;DHT22;38621;52.830;6.914;2024-03-23T13:30:53;7.10;99.90
52725;DHT22;38621;52.830;6.914;2024-03-23T13:33:18;6.50;99.90
52725;DHT22;38621;52.830;6.914;2024-03-23T13:35:51;6.40;99.90
52725;DHT22;38621;52.830;6.914;2024-03-23T13:38:17;6.50;99.90
52725;DHT22;38621;52.830;6.914;2024-03-23T13:40:55;6.50;99.90
52725;DHT22;38621;52.830;6.914;2024-03-23T13:43:22;6.70;99.90
52725;DHT22;38621;52.830;6.914;2024-03-23T13:45:51;6.90;99.90
52725;DHT22;38621;52.830;6.914;2024-03-23T13:48:22;7.20;99.90
52725;DHT22;38621;52.830;6.914;2024-03-23T13:51:00;7.60;99.90
52725;DHT22;38621;52.830;6.914;2024-03-23T13:53:26;8.00;99.90
52725;DHT22;38621;52.830;6.914;2024-03-23T13:55:52;8.30;99.90
52725;DHT22;38621;52.830;6.914;2024-03-23T13:58:18;8.40;99.90
52725;DHT22;38621;52.830;6.914;2024-03-23T14:00:44;8.00;99.90
52725;DHT22;38621;52.830;6.914;2024-03-23T14:03:11;7.80;99.90
52725;DHT22;38621;52.830;6.914;2024-03-23T14:05:37;7.80;99.90
52725;DHT22;38621;52.830;6.914;2024-03-23T14:08:09;7.90;99.90
52725;DHT22;38621;52.830;6.914;2024-03-23T14:10:36;8.00;99.90
52725;DHT22;38621;52.830;6.914;2024-03-23T14:13:02;8.10;99.90
52725;DHT22;38621;52.830;6.914;2024-03-23T14:15:31;8.20;99.90
52725;DHT22;38621;52.830;6.914;2024-03-23T14:17:58;8.40;99.90
52725;DHT22;38621;52.830;6.914;2024-03-23T14:20:24;8.60;99.90
52725;DHT22;38621;52.830;6.914;2024-03-23T14:22:50;8.70;99.90
52725;DHT22;38621;52.830;6.914;2024-03-23T14:25:16;8.60;99.90
52725;DHT22;38621;52.830;6.914;2024-03-23T14:27:43;8.60;99.90
52725;DHT22;38621;52.830;6.914;2024-03-23T14:30:10;8.50;99.90
52725;DHT22;38621;52.830;6.914;2024-03-23T14:32:36;8.60;99.90
52725;DHT22;38621;52.830;6.914;2024-03-23T14:35:06;8.60;99.90
52725;DHT22;38621;52.830;6.914;2024-03-23T14:37:39;8.50;99.90
52725;DHT22;38621;52.830;6.914;2024-03-23T14:40:05;8.50;99.90
52725;DHT22;38621;52.830;6.914;2024-03-23T14:42:32;8.50;99.90
52725;DHT22;38621;52.830;6.914;2024-03-23T14:44:58;8.80;99.90
52725;DHT22;38621;52.830;6.914;2024-03-23T14:47:24;8.50;99.90
52725;DHT22;38621;52.830;6.914;2024-03-23T14:49:49;8.50;99.90
52725;DHT22;38621;52.830;6.914;2024-03-23T14:52:18;8.20;99.90
52725;DHT22;38621;52.830;6.914;2024-03-23T14:54:44;8.00;99.90
52725;DHT22;38621;52.830;6.914;2024-03-23T14:57:10;7.40;99.90
52725;DHT22;38621;52.830;6.914;2024-03-23T14:59:36;6.60;99.90
52725;DHT22;38621;52.830;6.914;2024-03-23T15:02:04;6.10;99.90
52725;DHT22;38621;52.830;6.914;2024-03-23T15:04:29;5.70;99.90
52725;DHT22;38621;52.830;6.914;2024-03-23T15:06:55;5.90;99.90
52725;DHT22;38621;52.830;6.914;2024-03-23T15:09:21;6.20;99.90
52725;DHT22;38621;52.830;6.914;2024-03-23T15:11:46;6.40;99.90
52725;DHT22;38621;52.830;6.914;2024-03-23T15:14:12;6.70;99.90
52725;DHT22;38621;52.830;6.914;2024-03-23T15:16:38;6.60;99.90
52725;DHT22;38621;52.830;6.914;2024-03-23T15:19:03;6.60;99.90
52725;DHT22;38621;52.830;6.914;2024-03-23T15:21:31;6.50;99.90
52725;DHT22;38621;52.830;6.914;2024-03-23T15:23:57;6.50;99.90
52725;DHT22;38621;52.830;6.914;2024-03-23T15:26:23;6.60;99.90
52725;DHT22;38621;52.830;6.914;2024-03-23T15:28:49;6.70;99.90
52725;DHT22;38621;52.830;6.914;2024-03-23T15:31:25;6.70;99.90
52725;DHT22;38621;52.830;6.914;2024-03-23T15:33:51;6.60;99.90
52725;DHT22;38621;52.830;6.914;2024-03-23T15:36:17;6.70;99.90
52725;DHT22;38621;52.830;6.914;2024-03-23T15:38:43;6.60;99.90
52725;DHT22;38621;52.830;6.914;2024-03-23T15:41:09;6.60;99.90
52725;DHT22;38621;52.830;6.914;2024-03-23T15:43:35;6.50;99.90
52725;DHT22;38621;52.830;6.914;2024-03-23T15:46:03;6.80;99.90
52725;DHT22;38621;52.830;6.914;2024-03-23T15:48:29;6.30;99.90
52725;DHT22;38621;52.830;6.914;2024-03-23T15:51:04;6.30;99.90
52725;DHT22;38621;52.830;6.914;2024-03-23T15:53:30;6.30;99.90
52725;DHT22;38621;52.830;6.914;2024-03-23T15:55:57;6.30;99.90
52725;DHT22;38621;52.830;6.914;2024-03-23T15:58:24;6.30;99.90
52725;DHT22;38621;52.830;6.914;2024-03-23T16:01:00;6.30;99.90
52725;DHT22;38621;52.830;6.914;2024-03-23T16:03:26;6.00;99.90
52725;DHT22;38621;52.830;6.914;2024-03-23T16:05:53;5.90;99.90
52725;DHT22;38621;52.830;6.914;2024-03-23T16:08:19;5.80;99.90
52725;DHT22;38621;52.830;6.914;2024-03-23T16:10:45;5.70;99.90
52725;DHT22;38621;52.830;6.914;2024-03-23T16:13:11;6.10;99.90
52725;DHT22;38621;52.830;6.914;2024-03-23T16:15:37;5.70;99.90
52725;DHT22;38621;52.830;6.914;2024-03-23T16:18:02;5.90;99.90
52725;DHT22;38621;52.830;6.914;2024-03-23T16:20:28;6.20;99.90
52725;DHT22;38621;52.830;6.914;2024-03-23T16:22:54;6.40;99.90
52725;DHT22;38621;52.830;6.914;2024-03-23T16:25:19;6.20;99.90
52725;DHT22;38621;52.830;6.914;2024-03-23T16:27:45;6.10;99.90
52725;DHT22;38621;52.830;6.914;2024-03-23T16:30:11;6.00;99.90
52725;DHT22;38621;52.830;6.914;2024-03-23T16:32:37;5.90;99.90
52725;DHT22;38621;52.830;6.914;2024-03-23T16:35:04;5.90;99.90
52725;DHT22;38621;52.830;6.914;2024-03-23T16:37:30;5.80;99.90
52725;DHT22;38621;52.830;6.914;2024-03-23T16:39:56;5.70;99.90